sensor_id;sensor_type;location;lat;lon;timestamp;pressure;altitude;pressure_sealevel;temperature;humidity
34243;BME280;20504;43.214;27.920;2023-03-15T00:02:23;98827.91;;;9.44;100.00
34243;BME280;20504;43.214;27.920;2023-03-15T00:04:49;98807.78;;;9.52;100.00
34243;BME280;20504;43.214;27.920;2023-03-15T00:07:15;98805.81;;;9.54;100.00
34243;BME280;20504;43.214;27.920;2023-03-15T00:09:40;98827.06;;;9.43;100.00
34243;BME280;20504;43.214;27.920;2023-03-15T00:12:06;98810.09;;;9.46;100.00
34243;BME280;20504;43.214;27.920;2023-03-15T00:14:31;98776.31;;;9.59;100.00
34243;BME280;20504;43.214;27.920;2023-03-15T00:16:56;98753.19;;;9.61;100.00
34243;BME280;20504;43.214;27.920;2023-03-15T00:19:21;98752.22;;;9.62;100.00
34243;BME280;20504;43.214;27.920;2023-03-15T00:21:47;98756.38;;;9.55;100.00
34243;BME280;20504;43.214;27.920;2023-03-15T00:24:12;98779.16;;;9.36;100.00
34243;BME280;20504;43.214;27.920;2023-03-15T00:26:37;98737.16;;;9.53;100.00
34243;BME280;20504;43.214;27.920;2023-03-15T00:29:03;98683.56;;;9.70;100.00
34243;BME280;20504;43.214;27.920;2023-03-15T00:31:28;98683.41;;;9.71;100.00
34243;BME280;20504;43.214;27.920;2023-03-15T00:33:54;98687.03;;;9.70;100.00
34243;BME280;20504;43.214;27.920;2023-03-15T00:36:19;98676.72;;;9.77;100.00
34243;BME280;20504;43.214;27.920;2023-03-15T00:38:48;98669.22;;;9.73;100.00
34243;BME280;20504;43.214;27.920;2023-03-15T00:41:14;98664.91;;;9.71;100.00
34243;BME280;20504;43.214;27.920;2023-03-15T00:43:40;98664.19;;;9.69;100.00
34243;BME280;20504;43.214;27.920;2023-03-15T00:46:06;98641.75;;;9.74;100.00
34243;BME280;20504;43.214;27.920;2023-03-15T00:48:32;98597.19;;;9.88;100.00
34243;BME280;20504;43.214;27.920;2023-03-15T00:51:04;98588.25;;;9.89;100.00
34243;BME280;20504;43.214;27.920;2023-03-15T00:53:29;98570.69;;;9.88;100.00
34243;BME280;20504;43.214;27.920;2023-03-15T00:55:55;98566.25;;;9.89;100.00
34243;BME280;20504;43.214;27.920;2023-03-15T00:58:21;98559.53;;;9.94;100.00
34243;BME280;20504;43.214;27.920;2023-03-15T01:00:46;98580.84;;;9.93;100.00
34243;BME280;20504;43.214;27.920;2023-03-15T01:03:11;98559.66;;;10.02;100.00
34243;BME280;20504;43.214;27.920;2023-03-15T01:05:37;98577.09;;;10.05;100.00
34243;BME280;20504;43.214;27.920;2023-03-15T01:08:02;98594.66;;;10.06;100.00
34243;BME280;20504;43.214;27.920;2023-03-15T01:10:27;98602.16;;;10.11;100.00
34243;BME280;20504;43.214;27.920;2023-03-15T01:12:53;98616.38;;;10.10;100.00
34243;BME280;20504;43.214;27.920;2023-03-15T01:15:18;98648.44;;;10.07;100.00
34243;BME280;20504;43.214;27.920;2023-03-15T01:17:44;98689.56;;;9.91;100.00
34243;BME280;20504;43.214;27.920;2023-03-15T01:20:12;98675.75;;;9.97;100.00
34243;BME280;20504;43.214;27.920;2023-03-15T01:22:38;98665.19;;;10.07;100.00
34243;BME280;20504;43.214;27.920;2023-03-15T01:25:03;98655.13;;;10.11;100.00
34243;BME280;20504;43.214;27.920;2023-03-15T01:27:29;98697.09;;;9.96;100.00
34243;BME280;20504;43.214;27.920;2023-03-15T01:29:54;98681.59;;;10.01;100.00
34243;BME280;20504;43.214;27.920;2023-03-15T01:32:20;98702.66;;;9.93;100.00
34243;BME280;20504;43.214;27.920;2023-03-15T01:34:45;98696.25;;;9.86;100.00
34243;BME280;20504;43.214;27.920;2023-03-15T01:37:10;98699.59;;;9.88;100.00
34243;BME280;20504;43.214;27.920;2023-03-15T01:39:39;98651.34;;;10.03;100.00
34243;BME280;20504;43.214;27.920;2023-03-15T01:42:04;98658.34;;;9.95;100.00
34243;BME280;20504;43.214;27.920;2023-03-15T01:47:13;98613.19;;;9.96;100.00
34243;BME280;20504;43.214;27.920;2023-03-15T01:49:39;98619.88;;;10.00;100.00
34243;BME280;20504;43.214;27.920;2023-03-15T01:52:08;98600.63;;;10.08;100.00
34243;BME280;20504;43.214;27.920;2023-03-15T01:54:48;98597.28;;;10.06;100.00
34243;BME280;20504;43.214;27.920;2023-03-15T01:57:17;98554.47;;;10.11;100.00
34243;BME280;20504;43.214;27.920;2023-03-15T01:59:51;98576.38;;;10.03;100.00
34243;BME280;20504;43.214;27.920;2023-03-15T02:02:20;98548.91;;;10.14;100.00
34243;BME280;20504;43.214;27.920;2023-03-15T02:05:20;98585.72;;;9.97;100.00
34243;BME280;20504;43.214;27.920;2023-03-15T02:07:38;98534.28;;;10.00;100.00
34243;BME280;20504;43.214;27.920;2023-03-15T02:10:15;98530.25;;;10.06;100.00
34243;BME280;20504;43.214;27.920;2023-03-15T02:12:44;98571.25;;;9.82;100.00
34243;BME280;20504;43.214;27.920;2023-03-15T02:15:11;98543.25;;;9.89;100.00
34243;BME280;20504;43.214;27.920;2023-03-15T02:17:37;98574.75;;;9.73;100.00
34243;BME280;20504;43.214;27.920;2023-03-15T02:28:02;98472.50;;;9.72;100.00
34243;BME280;20504;43.214;27.920;2023-03-15T02:30:27;98471.25;;;9.66;100.00
34243;BME280;20504;43.214;27.920;2023-03-15T02:32:53;98457.91;;;9.68;100.00
34243;BME280;20504;43.214;27.920;2023-03-15T02:35:25;98420.25;;;9.74;100.00
34243;BME280;20504;43.214;27.920;2023-03-15T02:37:51;98340.22;;;9.90;100.00
34243;BME280;20504;43.214;27.920;2023-03-15T02:40:18;98340.63;;;9.85;100.00
34243;BME280;20504;43.214;27.920;2023-03-15T02:42:44;98312.06;;;9.89;100.00
34243;BME280;20504;43.214;27.920;2023-03-15T02:45:10;98296.91;;;9.81;100.00
34243;BME280;20504;43.214;27.920;2023-03-15T02:47:36;98291.91;;;9.78;100.00
34243;BME280;20504;43.214;27.920;2023-03-15T02:50:02;98261.81;;;9.79;100.00
34243;BME280;20504;43.214;27.920;2023-03-15T02:52:27;98211.78;;;9.86;100.00
34243;BME280;20504;43.214;27.920;2023-03-15T02:54:53;98151.16;;;10.00;100.00
34243;BME280;20504;43.214;27.920;2023-03-15T02:57:18;98144.16;;;9.91;100.00
34243;BME280;20504;43.214;27.920;2023-03-15T02:59:43;98120.84;;;9.95;100.00
34243;BME280;20504;43.214;27.920;2023-03-15T03:02:09;98081.66;;;9.98;100.00
34243;BME280;20504;43.214;27.920;2023-03-15T03:04:38;98024.81;;;10.11;100.00
34243;BME280;20504;43.214;27.920;2023-03-15T03:07:03;98062.25;;;9.90;100.00
34243;BME280;20504;43.214;27.920;2023-03-15T03:09:28;98131.75;;;9.56;100.00
34243;BME280;20504;43.214;27.920;2023-03-15T03:11:54;98088.22;;;9.68;100.00
34243;BME280;20504;43.214;27.920;2023-03-15T03:14:19;98089.63;;;9.63;100.00
34243;BME280;20504;43.214;27.920;2023-03-15T03:16:47;98100.75;;;9.49;100.00
34243;BME280;20504;43.214;27.920;2023-03-15T03:19:13;98095.31;;;9.50;100.00
34243;BME280;20504;43.214;27.920;2023-03-15T03:21:38;98062.84;;;9.66;100.00
34243;BME280;20504;43.214;27.920;2023-03-15T03:24:04;98055.63;;;9.68;100.00
34243;BME280;20504;43.214;27.920;2023-03-15T03:26:29;98096.81;;;9.53;100.00
34243;BME280;20504;43.214;27.920;2023-03-15T03:28:57;98070.94;;;9.64;100.00
34243;BME280;20504;43.214;27.920;2023-03-15T03:31:23;98098.56;;;9.62;100.00
34243;BME280;20504;43.214;27.920;2023-03-15T03:33:49;98099.22;;;9.64;100.00
34243;BME280;20504;43.214;27.920;2023-03-15T03:36:15;98086.56;;;9.67;100.00
34243;BME280;20504;43.214;27.920;2023-03-15T03:38:41;98089.78;;;9.61;100.00
34243;BME280;20504;43.214;27.920;2023-03-15T03:41:07;98020.59;;;10.00;100.00
34243;BME280;20504;43.214;27.920;2023-03-15T03:43:33;98011.72;;;10.09;100.00
34243;BME280;20504;43.214;27.920;2023-03-15T03:45:58;98054.19;;;9.99;100.00
34243;BME280;20504;43.214;27.920;2023-03-15T03:48:23;98027.31;;;10.12;100.00
34243;BME280;20504;43.214;27.920;2023-03-15T03:50:49;98100.81;;;9.92;100.00
34243;BME280;20504;43.214;27.920;2023-03-15T03:53:14;98118.19;;;9.95;100.00
34243;BME280;20504;43.214;27.920;2023-03-15T03:55:39;98135.75;;;9.96;100.00
34243;BME280;20504;43.214;27.920;2023-03-15T03:58:06;98134.44;;;10.00;100.00
34243;BME280;20504;43.214;27.920;2023-03-15T04:00:32;98148.91;;;10.06;100.00
34243;BME280;20504;43.214;27.920;2023-03-15T04:02:57;98140.66;;;10.09;100.00
34243;BME280;20504;43.214;27.920;2023-03-15T04:05:22;98161.75;;;10.00;100.00
34243;BME280;20504;43.214;27.920;2023-03-15T04:07:48;98186.16;;;10.04;100.00
34243;BME280;20504;43.214;27.920;2023-03-15T04:10:13;98179.41;;;10.10;100.00
34243;BME280;20504;43.214;27.920;2023-03-15T04:12:41;98182.09;;;10.18;100.00
34243;BME280;20504;43.214;27.920;2023-03-15T04:15:07;98157.59;;;10.34;100.00
34243;BME280;20504;43.214;27.920;2023-03-15T04:17:32;98218.66;;;10.14;100.00
34243;BME280;20504;43.214;27.920;2023-03-15T04:19:58;98206.88;;;10.26;100.00
34243;BME280;20504;43.214;27.920;2023-03-15T04:22:25;98233.69;;;10.23;100.00
34243;BME280;20504;43.214;27.920;2023-03-15T04:24:51;98266.31;;;10.24;100.00
34243;BME280;20504;43.214;27.920;2023-03-15T04:27:16;98258.78;;;10.37;100.00
34243;BME280;20504;43.214;27.920;2023-03-15T04:29:41;98289.69;;;10.28;100.00
34243;BME280;20504;43.214;27.920;2023-03-15T04:32:08;98284.44;;;10.37;100.00
34243;BME280;20504;43.214;27.920;2023-03-15T04:34:33;98318.00;;;10.28;100.00
34243;BME280;20504;43.214;27.920;2023-03-15T04:37:03;98312.53;;;10.29;100.00
34243;BME280;20504;43.214;27.920;2023-03-15T04:39:28;98300.66;;;10.34;100.00
34243;BME280;20504;43.214;27.920;2023-03-15T04:41:53;98304.13;;;10.34;100.00
34243;BME280;20504;43.214;27.920;2023-03-15T04:44:19;98310.13;;;10.36;100.00
34243;BME280;20504;43.214;27.920;2023-03-15T04:46:44;98297.69;;;10.54;100.00
34243;BME280;20504;43.214;27.920;2023-03-15T04:49:09;98347.59;;;10.41;100.00
34243;BME280;20504;43.214;27.920;2023-03-15T04:51:35;98342.06;;;10.52;100.00
34243;BME280;20504;43.214;27.920;2023-03-15T04:54:00;98387.88;;;10.45;100.00
34243;BME280;20504;43.214;27.920;2023-03-15T04:56:26;98358.97;;;10.69;100.00
34243;BME280;20504;43.214;27.920;2023-03-15T04:58:52;98368.28;;;10.73;100.00
34243;BME280;20504;43.214;27.920;2023-03-15T05:01:17;98391.28;;;10.73;100.00
34243;BME280;20504;43.214;27.920;2023-03-15T05:03:42;98432.19;;;10.70;100.00
34243;BME280;20504;43.214;27.920;2023-03-15T05:06:08;98457.72;;;10.71;100.00
34243;BME280;20504;43.214;27.920;2023-03-15T05:08:34;98480.59;;;10.72;100.00
34243;BME280;20504;43.214;27.920;2023-03-15T05:11:00;98480.97;;;10.77;100.00
34243;BME280;20504;43.214;27.920;2023-03-15T05:13:25;98484.19;;;10.81;100.00
34243;BME280;20504;43.214;27.920;2023-03-15T05:15:51;98511.69;;;10.80;100.00
34243;BME280;20504;43.214;27.920;2023-03-15T05:18:16;98516.84;;;10.81;100.00
34243;BME280;20504;43.214;27.920;2023-03-15T05:20:41;98543.34;;;10.81;100.00
34243;BME280;20504;43.214;27.920;2023-03-15T05:23:07;98557.28;;;10.83;100.00
34243;BME280;20504;43.214;27.920;2023-03-15T05:25:32;98576.84;;;10.82;100.00
34243;BME280;20504;43.214;27.920;2023-03-15T05:28:01;98579.72;;;10.89;100.00
34243;BME280;20504;43.214;27.920;2023-03-15T05:30:29;98637.00;;;10.72;100.00
34243;BME280;20504;43.214;27.920;2023-03-15T05:32:54;98626.38;;;10.82;100.00
34243;BME280;20504;43.214;27.920;2023-03-15T05:35:20;98610.56;;;10.90;100.00
34243;BME280;20504;43.214;27.920;2023-03-15T05:37:46;98592.66;;;11.02;100.00
34243;BME280;20504;43.214;27.920;2023-03-15T05:40:11;98608.88;;;10.99;100.00
34243;BME280;20504;43.214;27.920;2023-03-15T05:42:39;98603.72;;;11.15;100.00
34243;BME280;20504;43.214;27.920;2023-03-15T05:45:05;98610.84;;;11.14;100.00
34243;BME280;20504;43.214;27.920;2023-03-15T05:47:31;98598.00;;;11.37;100.00
34243;BME280;20504;43.214;27.920;2023-03-15T05:49:56;98635.47;;;11.34;100.00
34243;BME280;20504;43.214;27.920;2023-03-15T05:52:22;98646.53;;;11.47;100.00
34243;BME280;20504;43.214;27.920;2023-03-15T05:54:48;98687.66;;;11.43;100.00
34243;BME280;20504;43.214;27.920;2023-03-15T05:57:13;98704.78;;;11.49;100.00
34243;BME280;20504;43.214;27.920;2023-03-15T05:59:39;98709.22;;;11.58;100.00
34243;BME280;20504;43.214;27.920;2023-03-15T06:02:04;98752.56;;;11.49;100.00
34243;BME280;20504;43.214;27.920;2023-03-15T06:04:29;98760.38;;;11.50;100.00
34243;BME280;20504;43.214;27.920;2023-03-15T06:06:55;98715.13;;;11.79;100.00
34243;BME280;20504;43.214;27.920;2023-03-15T06:09:20;98672.63;;;12.15;100.00
34243;BME280;20504;43.214;27.920;2023-03-15T06:11:45;98749.06;;;12.03;100.00
34243;BME280;20504;43.214;27.920;2023-03-15T06:14:10;98772.50;;;12.08;100.00
34243;BME280;20504;43.214;27.920;2023-03-15T06:16:36;98763.78;;;12.33;100.00
34243;BME280;20504;43.214;27.920;2023-03-15T06:19:01;98786.47;;;12.46;100.00
34243;BME280;20504;43.214;27.920;2023-03-15T06:21:27;98816.59;;;12.46;100.00
34243;BME280;20504;43.214;27.920;2023-03-15T06:23:52;98815.88;;;12.62;100.00
34243;BME280;20504;43.214;27.920;2023-03-15T06:26:18;98892.38;;;12.32;100.00
34243;BME280;20504;43.214;27.920;2023-03-15T06:28:44;98874.63;;;12.51;100.00
34243;BME280;20504;43.214;27.920;2023-03-15T06:31:10;98891.03;;;12.46;100.00
34243;BME280;20504;43.214;27.920;2023-03-15T06:33:35;98882.63;;;12.68;100.00
34243;BME280;20504;43.214;27.920;2023-03-15T06:36:01;98886.69;;;12.81;100.00
34243;BME280;20504;43.214;27.920;2023-03-15T06:38:26;98854.84;;;13.07;100.00
34243;BME280;20504;43.214;27.920;2023-03-15T06:40:52;98925.59;;;12.82;100.00
34243;BME280;20504;43.214;27.920;2023-03-15T06:43:17;98939.38;;;12.77;100.00
34243;BME280;20504;43.214;27.920;2023-03-15T06:45:47;98923.25;;;12.96;100.00
34243;BME280;20504;43.214;27.920;2023-03-15T06:48:13;98921.53;;;13.05;100.00
34243;BME280;20504;43.214;27.920;2023-03-15T06:50:39;98971.53;;;12.84;100.00
34243;BME280;20504;43.214;27.920;2023-03-15T06:53:04;98992.56;;;12.77;100.00
34243;BME280;20504;43.214;27.920;2023-03-15T06:55:29;99011.13;;;12.69;100.00
34243;BME280;20504;43.214;27.920;2023-03-15T06:57:55;99049.00;;;12.43;100.00
34243;BME280;20504;43.214;27.920;2023-03-15T07:00:20;99077.19;;;12.27;100.00
34243;BME280;20504;43.214;27.920;2023-03-15T07:02:46;99080.31;;;12.12;100.00
34243;BME280;20504;43.214;27.920;2023-03-15T07:05:12;99063.94;;;12.07;100.00
34243;BME280;20504;43.214;27.920;2023-03-15T07:07:37;98992.00;;;12.28;100.00
34243;BME280;20504;43.214;27.920;2023-03-15T07:10:03;98998.44;;;12.26;100.00
34243;BME280;20504;43.214;27.920;2023-03-15T07:12:28;98980.41;;;12.29;100.00
34243;BME280;20504;43.214;27.920;2023-03-15T07:14:53;98974.66;;;12.24;100.00
34243;BME280;20504;43.214;27.920;2023-03-15T07:17:19;98990.13;;;12.11;100.00
34243;BME280;20504;43.214;27.920;2023-03-15T07:19:44;98908.56;;;12.39;100.00
34243;BME280;20504;43.214;27.920;2023-03-15T07:22:09;98840.44;;;12.73;100.00
34243;BME280;20504;43.214;27.920;2023-03-15T07:24:35;98806.34;;;12.95;100.00
34243;BME280;20504;43.214;27.920;2023-03-15T07:27:00;98839.22;;;12.86;100.00
34243;BME280;20504;43.214;27.920;2023-03-15T07:29:25;98871.03;;;12.78;100.00
34243;BME280;20504;43.214;27.920;2023-03-15T07:31:51;98818.09;;;13.10;100.00
34243;BME280;20504;43.214;27.920;2023-03-15T07:34:16;98849.28;;;13.00;100.00
34243;BME280;20504;43.214;27.920;2023-03-15T07:36:42;98808.41;;;13.27;100.00
34243;BME280;20504;43.214;27.920;2023-03-15T07:39:07;98832.09;;;13.38;100.00
34243;BME280;20504;43.214;27.920;2023-03-15T07:41:32;98881.66;;;13.31;100.00
34243;BME280;20504;43.214;27.920;2023-03-15T07:43:58;98882.00;;;13.36;100.00
34243;BME280;20504;43.214;27.920;2023-03-15T07:46:23;98916.38;;;13.21;100.00
34243;BME280;20504;43.214;27.920;2023-03-15T07:48:49;98855.06;;;13.65;100.00
34243;BME280;20504;43.214;27.920;2023-03-15T07:51:14;98912.31;;;13.61;100.00
34243;BME280;20504;43.214;27.920;2023-03-15T07:53:39;99037.16;;;13.11;100.00
34243;BME280;20504;43.214;27.920;2023-03-15T07:56:05;99078.50;;;12.87;100.00
34243;BME280;20504;43.214;27.920;2023-03-15T07:58:30;99068.09;;;12.94;100.00
34243;BME280;20504;43.214;27.920;2023-03-15T08:00:56;98981.97;;;13.13;100.00
34243;BME280;20504;43.214;27.920;2023-03-15T08:03:22;98982.91;;;13.39;100.00
34243;BME280;20504;43.214;27.920;2023-03-15T08:05:48;98996.50;;;13.36;100.00
34243;BME280;20504;43.214;27.920;2023-03-15T08:08:14;99012.56;;;13.26;100.00
34243;BME280;20504;43.214;27.920;2023-03-15T08:10:40;99055.28;;;13.07;100.00
34243;BME280;20504;43.214;27.920;2023-03-15T08:13:07;99026.22;;;13.14;100.00
34243;BME280;20504;43.214;27.920;2023-03-15T08:15:32;98998.72;;;13.23;100.00
34243;BME280;20504;43.214;27.920;2023-03-15T08:17:58;98982.44;;;13.26;100.00
34243;BME280;20504;43.214;27.920;2023-03-15T08:20:24;98936.78;;;13.39;100.00
34243;BME280;20504;43.214;27.920;2023-03-15T08:22:50;98910.75;;;13.50;100.00
34243;BME280;20504;43.214;27.920;2023-03-15T08:25:16;98893.88;;;13.68;100.00
34243;BME280;20504;43.214;27.920;2023-03-15T08:27:42;98880.97;;;13.81;100.00
34243;BME280;20504;43.214;27.920;2023-03-15T08:30:09;98887.72;;;14.01;100.00
34243;BME280;20504;43.214;27.920;2023-03-15T08:32:36;98905.56;;;14.09;100.00
34243;BME280;20504;43.214;27.920;2023-03-15T08:35:01;98930.44;;;14.17;100.00
34243;BME280;20504;43.214;27.920;2023-03-15T08:37:27;98922.28;;;14.19;100.00
34243;BME280;20504;43.214;27.920;2023-03-15T08:39:52;98972.69;;;14.04;100.00
34243;BME280;20504;43.214;27.920;2023-03-15T08:42:25;98982.50;;;14.04;100.00
34243;BME280;20504;43.214;27.920;2023-03-15T08:44:50;99020.03;;;13.84;100.00
34243;BME280;20504;43.214;27.920;2023-03-15T08:47:15;98947.44;;;14.24;100.00
34243;BME280;20504;43.214;27.920;2023-03-15T08:49:41;98945.47;;;14.27;100.00
34243;BME280;20504;43.214;27.920;2023-03-15T08:52:06;98933.16;;;14.34;100.00
34243;BME280;20504;43.214;27.920;2023-03-15T08:54:31;98898.94;;;14.63;100.00
34243;BME280;20504;43.214;27.920;2023-03-15T08:56:57;98988.94;;;14.19;100.00
34243;BME280;20504;43.214;27.920;2023-03-15T08:59:22;98962.13;;;14.29;100.00
34243;BME280;20504;43.214;27.920;2023-03-15T09:01:47;98876.44;;;14.74;100.00
34243;BME280;20504;43.214;27.920;2023-03-15T09:04:12;98854.25;;;14.98;100.00
34243;BME280;20504;43.214;27.920;2023-03-15T09:06:38;98867.59;;;14.98;100.00
34243;BME280;20504;43.214;27.920;2023-03-15T09:09:03;98915.13;;;14.70;100.00
34243;BME280;20504;43.214;27.920;2023-03-15T09:11:29;98834.06;;;15.20;100.00
34243;BME280;20504;43.214;27.920;2023-03-15T09:13:54;98876.31;;;15.08;100.00
34243;BME280;20504;43.214;27.920;2023-03-15T09:16:19;98901.13;;;15.00;100.00
34243;BME280;20504;43.214;27.920;2023-03-15T09:18:45;99015.56;;;14.45;100.00
34243;BME280;20504;43.214;27.920;2023-03-15T09:21:10;98971.13;;;14.53;100.00
34243;BME280;20504;43.214;27.920;2023-03-15T09:23:35;98940.97;;;14.69;100.00
34243;BME280;20504;43.214;27.920;2023-03-15T09:26:01;98874.94;;;15.04;100.00
34243;BME280;20504;43.214;27.920;2023-03-15T09:28:26;98961.13;;;14.56;100.00
34243;BME280;20504;43.214;27.920;2023-03-15T09:30:52;98938.53;;;14.42;100.00
34243;BME280;20504;43.214;27.920;2023-03-15T09:33:18;98916.94;;;14.53;100.00
34243;BME280;20504;43.214;27.920;2023-03-15T09:35:43;98868.75;;;14.63;100.00
34243;BME280;20504;43.214;27.920;2023-03-15T09:38:08;98912.88;;;14.49;100.00
34243;BME280;20504;43.214;27.920;2023-03-15T09:40:43;98887.59;;;14.53;100.00
34243;BME280;20504;43.214;27.920;2023-03-15T09:43:17;98847.94;;;14.74;100.00
34243;BME280;20504;43.214;27.920;2023-03-15T09:51:01;98926.16;;;14.33;100.00
34243;BME280;20504;43.214;27.920;2023-03-15T09:53:31;98801.72;;;14.82;100.00
34243;BME280;20504;43.214;27.920;2023-03-15T09:55:58;98813.91;;;14.76;100.00
34243;BME280;20504;43.214;27.920;2023-03-15T09:58:25;98751.97;;;15.13;100.00
34243;BME280;20504;43.214;27.920;2023-03-15T10:00:57;98839.56;;;14.85;100.00
34243;BME280;20504;43.214;27.920;2023-03-15T10:03:35;98891.88;;;14.46;100.00
34243;BME280;20504;43.214;27.920;2023-03-15T10:06:04;98855.75;;;14.60;100.00
34243;BME280;20504;43.214;27.920;2023-03-15T10:08:31;98809.41;;;14.77;100.00
34243;BME280;20504;43.214;27.920;2023-03-15T10:13:45;98860.75;;;14.54;100.00
34243;BME280;20504;43.214;27.920;2023-03-15T10:24:08;98713.25;;;15.18;100.00
34243;BME280;20504;43.214;27.920;2023-03-15T10:26:36;98773.31;;;15.05;100.00
34243;BME280;20504;43.214;27.920;2023-03-15T10:29:07;98865.75;;;14.58;100.00
34243;BME280;20504;43.214;27.920;2023-03-15T10:31:37;98833.84;;;14.40;100.00
34243;BME280;20504;43.214;27.920;2023-03-15T10:34:04;98766.19;;;14.65;100.00
34243;BME280;20504;43.214;27.920;2023-03-15T10:36:30;98796.16;;;14.27;100.00
34243;BME280;20504;43.214;27.920;2023-03-15T10:38:56;98768.97;;;14.23;100.00
34243;BME280;20504;43.214;27.920;2023-03-15T10:41:35;98689.19;;;14.54;100.00
34243;BME280;20504;43.214;27.920;2023-03-15T10:44:02;98607.56;;;14.84;100.00
34243;BME280;20504;43.214;27.920;2023-03-15T10:46:28;98557.91;;;15.14;100.00
34243;BME280;20504;43.214;27.920;2023-03-15T10:48:56;98441.84;;;15.85;100.00
34243;BME280;20504;43.214;27.920;2023-03-15T10:51:29;98415.91;;;16.45;100.00
34243;BME280;20504;43.214;27.920;2023-03-15T10:53:59;98450.22;;;16.56;100.00
34243;BME280;20504;43.214;27.920;2023-03-15T10:56:27;98479.56;;;16.79;100.00
34243;BME280;20504;43.214;27.920;2023-03-15T10:58:54;98559.88;;;16.79;100.00
34243;BME280;20504;43.214;27.920;2023-03-15T11:03:59;98807.19;;;15.85;100.00
34243;BME280;20504;43.214;27.920;2023-03-15T11:06:26;98734.34;;;16.14;100.00
34243;BME280;20504;43.214;27.920;2023-03-15T11:08:51;98692.72;;;16.34;100.00
34243;BME280;20504;43.214;27.920;2023-03-15T11:11:16;98801.63;;;15.94;100.00
34243;BME280;20504;43.214;27.920;2023-03-15T11:13:42;98859.56;;;15.47;100.00
34243;BME280;20504;43.214;27.920;2023-03-15T11:16:20;98876.63;;;15.13;100.00
34243;BME280;20504;43.214;27.920;2023-03-15T11:21:12;98732.00;;;15.40;100.00
34243;BME280;20504;43.214;27.920;2023-03-15T11:23:39;98672.53;;;15.63;100.00
34243;BME280;20504;43.214;27.920;2023-03-15T11:26:05;98552.91;;;16.40;100.00
34243;BME280;20504;43.214;27.920;2023-03-15T11:28:31;98524.88;;;16.80;100.00
34243;BME280;20504;43.214;27.920;2023-03-15T11:30:59;98581.25;;;16.64;100.00
34243;BME280;20504;43.214;27.920;2023-03-15T11:33:36;98578.34;;;16.74;100.00
34243;BME280;20504;43.214;27.920;2023-03-15T11:36:04;98598.50;;;16.61;100.00
34243;BME280;20504;43.214;27.920;2023-03-15T11:38:32;98749.41;;;15.84;100.00
34243;BME280;20504;43.214;27.920;2023-03-15T11:40:59;98728.41;;;15.72;100.00
34243;BME280;20504;43.214;27.920;2023-03-15T11:43:27;98652.44;;;16.13;100.00
34243;BME280;20504;43.214;27.920;2023-03-15T11:45:57;98645.56;;;16.18;100.00
34243;BME280;20504;43.214;27.920;2023-03-15T11:48:28;98606.97;;;16.50;100.00
34243;BME280;20504;43.214;27.920;2023-03-15T11:50:55;98586.25;;;16.82;100.00
34243;BME280;20504;43.214;27.920;2023-03-15T11:53:22;98574.22;;;17.07;100.00
34243;BME280;20504;43.214;27.920;2023-03-15T11:55:49;98558.72;;;17.39;100.00
34243;BME280;20504;43.214;27.920;2023-03-15T11:58:34;98576.28;;;17.63;100.00
34243;BME280;20504;43.214;27.920;2023-03-15T12:01:06;98599.25;;;17.87;100.00
34243;BME280;20504;43.214;27.920;2023-03-15T12:03:38;98526.34;;;18.60;100.00
34243;BME280;20504;43.214;27.920;2023-03-15T12:10:58;98763.41;;;18.03;100.00
34243;BME280;20504;43.214;27.920;2023-03-15T12:13:28;98770.16;;;17.99;100.00
34243;BME280;20504;43.214;27.920;2023-03-15T12:15:53;98770.75;;;17.95;100.00
34243;BME280;20504;43.214;27.920;2023-03-15T12:18:20;98736.03;;;18.29;100.00
34243;BME280;20504;43.214;27.920;2023-03-15T12:26:22;98752.53;;;17.46;100.00
34243;BME280;20504;43.214;27.920;2023-03-15T12:31:14;98772.16;;;17.32;100.00
34243;BME280;20504;43.214;27.920;2023-03-15T12:33:50;98800.41;;;17.19;100.00
34243;BME280;20504;43.214;27.920;2023-03-15T12:38:52;98873.00;;;16.25;100.00
34243;BME280;20504;43.214;27.920;2023-03-15T12:41:34;98851.75;;;16.00;100.00
34243;BME280;20504;43.214;27.920;2023-03-15T12:54:23;98716.69;;;15.34;100.00
34243;BME280;20504;43.214;27.920;2023-03-15T12:56:59;98635.13;;;15.55;100.00
34243;BME280;20504;43.214;27.920;2023-03-15T12:59:31;98585.69;;;15.59;100.00
34243;BME280;20504;43.214;27.920;2023-03-15T13:01:58;98508.75;;;15.92;100.00
34243;BME280;20504;43.214;27.920;2023-03-15T13:04:25;98498.00;;;16.00;100.00
34243;BME280;20504;43.214;27.920;2023-03-15T13:06:54;98489.34;;;16.13;100.00
34243;BME280;20504;43.214;27.920;2023-03-15T13:09:40;98531.44;;;15.96;100.00
34243;BME280;20504;43.214;27.920;2023-03-15T13:14:47;98594.31;;;15.69;100.00
34243;BME280;20504;43.214;27.920;2023-03-15T13:17:29;98597.06;;;15.53;100.00
34243;BME280;20504;43.214;27.920;2023-03-15T13:22:45;98565.19;;;15.20;100.00
34243;BME280;20504;43.214;27.920;2023-03-15T13:25:16;98534.53;;;15.16;100.00
34243;BME280;20504;43.214;27.920;2023-03-15T13:27:54;98544.09;;;15.02;100.00
34243;BME280;20504;43.214;27.920;2023-03-15T13:30:33;98521.28;;;15.00;100.00
34243;BME280;20504;43.214;27.920;2023-03-15T13:33:20;98525.72;;;14.76;100.00
34243;BME280;20504;43.214;27.920;2023-03-15T13:38:20;98343.16;;;15.31;100.00
34243;BME280;20504;43.214;27.920;2023-03-15T13:40:47;98384.19;;;15.15;100.00
34243;BME280;20504;43.214;27.920;2023-03-15T13:43:12;98403.81;;;15.00;100.00
34243;BME280;20504;43.214;27.920;2023-03-15T13:45:40;98236.25;;;15.84;100.00
34243;BME280;20504;43.214;27.920;2023-03-15T13:48:06;98290.25;;;15.79;100.00